Time;durP1;ratioP1;P1;durP2;ratioP2;P2;SDS_P1;SDS_P2;PMS_P1;PMS_P2;Temp;Humidity;BMP_temperature;BMP_pressure;BME280_temperature;BME280_humidity;BME280_pressure;Samples;Min_cycle;Max_cycle;Signal;HPM_P1;HPM_P2
2022/09/22 00:01:30;;;;;;;6.13;3.10;;;;;;;;;;5116116;28;20058;-80
2022/09/22 00:04:00;;;;;;;6.45;3.03;;;;;;;;;;5107253;28;20016;-80
2022/09/22 00:06:28;;;;;;;5.65;3.10;;;;;;;;;;5105079;28;20020;-80
2022/09/22 00:08:56;;;;;;;4.93;2.58;;;;;;;;;;5106367;28;20021;-80
2022/09/22 00:11:27;;;;;;;4.95;2.55;;;;;;;;;;5105734;28;20032;-80
2022/09/22 00:13:58;;;;;;;6.03;2.70;;;;;;;;;;5104575;28;20028;-80
2022/09/22 00:16:36;;;;;;;4.95;2.80;;;;;;;;;;5104862;28;20020;-80
2022/09/22 00:19:02;;;;;;;5.22;2.60;;;;;;;;;;5095222;28;20095;-80
2022/09/22 00:21:29;;;;;;;5.70;3.15;;;;;;;;;;5102586;28;20441;-81
2022/09/22 00:23:55;;;;;;;5.82;2.83;;;;;;;;;;5100674;28;20020;-81
2022/09/22 00:26:22;;;;;;;5.38;2.55;;;;;;;;;;5105629;28;20028;-81
2022/09/22 00:28:50;;;;;;;4.80;2.70;;;;;;;;;;5102976;28;20023;-81
2022/09/22 00:31:20;;;;;;;5.32;2.78;;;;;;;;;;5104929;28;20131;-81
2022/09/22 00:33:46;;;;;;;5.72;2.97;;;;;;;;;;5107191;28;20097;-80
2022/09/22 00:36:13;;;;;;;5.35;2.67;;;;;;;;;;5109223;28;20038;-80
2022/09/22 00:38:39;;;;;;;6.68;2.70;;;;;;;;;;5090358;28;20020;-81
2022/09/22 00:41:09;;;;;;;5.15;2.60;;;;;;;;;;5107790;28;20471;-81
2022/09/22 00:43:36;;;;;;;5.07;2.53;;;;;;;;;;5109062;28;20016;-82
2022/09/22 00:46:02;;;;;;;5.72;3.20;;;;;;;;;;5106633;28;20028;-80
2022/09/22 00:48:30;;;;;;;6.10;3.25;;;;;;;;;;5108138;28;20073;-80
2022/09/22 00:50:58;;;;;;;6.38;3.72;;;;;;;;;;5107080;28;20028;-80
2022/09/22 00:53:24;;;;;;;6.28;3.08;;;;;;;;;;5106179;28;20039;-80
2022/09/22 00:55:56;;;;;;;5.03;2.88;;;;;;;;;;5087078;28;20020;-80
2022/09/22 00:58:27;;;;;;;5.68;3.08;;;;;;;;;;5113338;28;20548;-81
2022/09/22 01:00:53;;;;;;;6.40;3.35;;;;;;;;;;5106240;28;20111;-81
2022/09/22 01:03:21;;;;;;;6.05;2.80;;;;;;;;;;5106812;28;20031;-80
2022/09/22 01:05:48;;;;;;;5.30;2.88;;;;;;;;;;5103665;28;20024;-81
2022/09/22 01:08:14;;;;;;;6.25;3.25;;;;;;;;;;5111044;28;20027;-81
2022/09/22 01:10:41;;;;;;;5.57;2.97;;;;;;;;;;5111715;28;20028;-81
2022/09/22 01:13:07;;;;;;;6.75;3.63;;;;;;;;;;5088959;28;20423;-81
2022/09/22 01:15:40;;;;;;;5.25;2.80;;;;;;;;;;5126104;28;20049;-80
2022/09/22 01:18:06;;;;;;;5.60;3.22;;;;;;;;;;5109232;28;20488;-81
2022/09/22 01:20:56;;;;;;;5.82;2.83;;;;;;;;;;5118139;28;20542;-81
2022/09/22 01:23:34;;;;;;;5.18;2.88;;;;;;;;;;5093255;28;20055;-81
2022/09/22 01:26:07;;;;;;;5.70;3.13;;;;;;;;;;5088519;28;20020;-81
2022/09/22 01:28:53;;;;;;;5.05;2.90;;;;;;;;;;5113207;28;20028;-81
2022/09/22 01:31:19;;;;;;;6.45;3.40;;;;;;;;;;5126851;28;20031;-81
2022/09/22 01:34:03;;;;;;;6.65;3.08;;;;;;;;;;5126547;28;20026;-81
2022/09/22 01:36:33;;;;;;;5.55;3.05;;;;;;;;;;5110044;28;20023;-80
2022/09/22 01:39:05;;;;;;;6.88;3.65;;;;;;;;;;5117007;28;20039;-81
2022/09/22 01:41:50;;;;;;;5.65;3.42;;;;;;;;;;5100282;28;20100;-81
2022/09/22 01:44:33;;;;;;;7.85;3.92;;;;;;;;;;5102302;28;20034;-81
2022/09/22 01:47:07;;;;;;;5.65;3.00;;;;;;;;;;5106322;28;20027;-81
2022/09/22 01:49:35;;;;;;;7.03;3.42;;;;;;;;;;5115383;28;20023;-81
2022/09/22 01:52:04;;;;;;;5.95;3.22;;;;;;;;;;5126512;28;20035;-81
2022/09/22 01:54:32;;;;;;;5.97;3.03;;;;;;;;;;5098243;28;20467;-80
2022/09/22 01:57:05;;;;;;;6.70;3.65;;;;;;;;;;5121222;28;20030;-80
2022/09/22 01:59:33;;;;;;;7.15;3.47;;;;;;;;;;5108050;28;20028;-81
2022/09/22 02:02:04;;;;;;;7.63;3.20;;;;;;;;;;5112012;28;20043;-81
2022/09/22 02:04:44;;;;;;;6.00;3.15;;;;;;;;;;5127073;28;20024;-81
2022/09/22 02:07:12;;;;;;;6.75;3.58;;;;;;;;;;5126699;28;20069;-81
2022/09/22 02:09:39;;;;;;;6.70;3.67;;;;;;;;;;5102704;28;20446;-81
2022/09/22 02:12:06;;;;;;;6.07;3.65;;;;;;;;;;5106045;28;20046;-81
2022/09/22 02:14:32;;;;;;;6.93;3.53;;;;;;;;;;5105302;28;20058;-81
2022/09/22 02:16:58;;;;;;;7.13;3.88;;;;;;;;;;5105994;28;20028;-82
2022/09/22 02:19:28;;;;;;;6.35;3.55;;;;;;;;;;5104944;28;20032;-80
2022/09/22 02:21:54;;;;;;;6.40;3.65;;;;;;;;;;5105038;28;20468;-81
2022/09/22 02:24:28;;;;;;;4.97;3.13;;;;;;;;;;5105424;28;20031;-81
2022/09/22 02:26:55;;;;;;;6.90;3.92;;;;;;;;;;5097301;28;20042;-81
2022/09/22 02:29:21;;;;;;;6.70;4.22;;;;;;;;;;5105964;28;20099;-81
2022/09/22 02:31:48;;;;;;;6.90;3.80;;;;;;;;;;5085316;28;20484;-81
2022/09/22 02:34:14;;;;;;;7.45;3.80;;;;;;;;;;5087621;28;20024;-81
2022/09/22 02:36:41;;;;;;;7.22;4.03;;;;;;;;;;5105767;28;20044;-81
2022/09/22 02:39:09;;;;;;;7.25;4.03;;;;;;;;;;5107215;28;20027;-81
2022/09/22 02:41:38;;;;;;;6.75;4.00;;;;;;;;;;5105286;28;20028;-81
2022/09/22 02:44:19;;;;;;;7.38;3.90;;;;;;;;;;5082262;28;20021;-81
2022/09/22 02:46:47;;;;;;;7.05;4.18;;;;;;;;;;5076620;28;20527;-80
2022/09/22 02:49:15;;;;;;;7.05;4.05;;;;;;;;;;5071750;28;20058;-81
2022/09/22 02:51:41;;;;;;;6.72;3.85;;;;;;;;;;5096145;28;20035;-81
2022/09/22 02:54:07;;;;;;;6.90;3.92;;;;;;;;;;5102309;28;20031;-81
2022/09/22 02:56:33;;;;;;;5.88;3.40;;;;;;;;;;5111415;28;20107;-81
2022/09/22 02:58:59;;;;;;;7.32;3.67;;;;;;;;;;5086203;28;20039;-80
2022/09/22 03:01:25;;;;;;;6.57;3.40;;;;;;;;;;5076157;28;20496;-81
2022/09/22 03:03:51;;;;;;;7.72;4.38;;;;;;;;;;5104943;28;20020;-80
2022/09/22 03:06:17;;;;;;;6.85;3.92;;;;;;;;;;5096548;28;20028;-81
2022/09/22 03:08:44;;;;;;;5.93;3.47;;;;;;;;;;5111660;28;20035;-81
2022/09/22 03:11:10;;;;;;;6.80;3.65;;;;;;;;;;5117570;28;20057;-80
2022/09/22 03:13:36;;;;;;;6.53;3.78;;;;;;;;;;5117510;28;20543;-80
2022/09/22 03:16:02;;;;;;;7.07;4.13;;;;;;;;;;5117856;28;20510;-81
2022/09/22 03:18:28;;;;;;;5.97;3.28;;;;;;;;;;5109491;28;20028;-81
2022/09/22 03:20:54;;;;;;;7.50;3.80;;;;;;;;;;5091543;28;20031;-81
2022/09/22 03:23:20;;;;;;;8.20;3.80;;;;;;;;;;5093172;28;20030;-80
2022/09/22 03:25:46;;;;;;;6.50;3.88;;;;;;;;;;5096622;28;20024;-81
2022/09/22 03:28:12;;;;;;;8.32;3.97;;;;;;;;;;5096531;28;20496;-81
2022/09/22 03:30:39;;;;;;;6.85;3.63;;;;;;;;;;5097567;28;20024;-80
2022/09/22 03:33:05;;;;;;;6.25;3.83;;;;;;;;;;5096813;28;20020;-81
2022/09/22 03:35:31;;;;;;;6.78;3.78;;;;;;;;;;5095540;28;20031;-80
2022/09/22 03:37:57;;;;;;;7.05;4.03;;;;;;;;;;5073875;28;20230;-81
2022/09/22 03:40:46;;;;;;;5.90;3.63;;;;;;;;;;5094850;28;20504;-81
2022/09/22 03:43:16;;;;;;;6.93;3.55;;;;;;;;;;4995605;28;20164;-82
2022/09/22 03:46:07;;;;;;;7.15;4.07;;;;;;;;;;4995663;28;20062;-81
2022/09/22 03:48:50;;;;;;;7.18;4.13;;;;;;;;;;4973588;28;20045;-81
2022/09/22 03:51:37;;;;;;;6.70;3.88;;;;;;;;;;4977907;28;20594;-81
2022/09/22 03:54:29;;;;;;;7.15;3.60;;;;;;;;;;4957780;29;20039;-81
2022/09/22 03:56:57;;;;;;;6.63;3.75;;;;;;;;;;4941930;29;20043;-81
2022/09/22 03:59:32;;;;;;;6.97;3.90;;;;;;;;;;4903404;29;20493;-81
2022/09/22 04:01:59;;;;;;;6.97;3.88;;;;;;;;;;4899537;29;20100;-81
2022/09/22 04:04:25;;;;;;;8.18;4.30;;;;;;;;;;4890459;29;20041;-81
2022/09/22 04:06:51;;;;;;;7.07;3.90;;;;;;;;;;5029149;22;20118;-81
2022/09/22 04:09:17;;;;;;;6.22;4.25;;;;;;;;;;5078804;28;20455;-81
2022/09/22 04:11:44;;;;;;;6.78;4.47;;;;;;;;;;5077594;28;20032;-81
2022/09/22 04:14:10;;;;;;;8.10;4.32;;;;;;;;;;5075084;28;20032;-81
2022/09/22 04:16:36;;;;;;;6.50;3.97;;;;;;;;;;5080980;28;20016;-81
2022/09/22 04:19:03;;;;;;;9.50;5.50;;;;;;;;;;5101275;28;20036;-82
2022/09/22 04:21:29;;;;;;;9.05;4.82;;;;;;;;;;5095460;28;20028;-81
2022/09/22 04:23:55;;;;;;;7.57;4.65;;;;;;;;;;5098878;28;20108;-81
2022/09/22 04:26:22;;;;;;;8.10;4.95;;;;;;;;;;5098792;28;20032;-82
2022/09/22 04:28:48;;;;;;;9.45;5.38;;;;;;;;;;5099415;28;20020;-82
2022/09/22 04:31:14;;;;;;;7.68;4.82;;;;;;;;;;5102487;28;20043;-81
2022/09/22 04:33:40;;;;;;;7.18;4.13;;;;;;;;;;5103603;28;20054;-81
2022/09/22 04:36:06;;;;;;;7.13;4.15;;;;;;;;;;5100341;28;20480;-81
2022/09/22 04:38:32;;;;;;;7.38;4.50;;;;;;;;;;5076722;28;20091;-81
2022/09/22 04:40:58;;;;;;;6.82;4.30;;;;;;;;;;5073070;28;20027;-81
2022/09/22 04:43:24;;;;;;;8.10;4.38;;;;;;;;;;5102797;28;20032;-80
2022/09/22 04:45:50;;;;;;;7.00;4.30;;;;;;;;;;5094583;28;20071;-80
2022/09/22 04:48:16;;;;;;;6.75;3.85;;;;;;;;;;5104194;28;20533;-80
2022/09/22 04:50:42;;;;;;;6.78;3.90;;;;;;;;;;5107715;28;20044;-80
2022/09/22 04:53:08;;;;;;;7.15;3.92;;;;;;;;;;5100867;28;20039;-80
2022/09/22 04:55:34;;;;;;;6.75;3.97;;;;;;;;;;5099229;28;20048;-80
2022/09/22 04:58:00;;;;;;;6.68;4.40;;;;;;;;;;5100050;28;20679;-80
2022/09/22 05:00:27;;;;;;;8.23;4.72;;;;;;;;;;5102736;28;20060;-80
2022/09/22 05:02:53;;;;;;;7.35;4.80;;;;;;;;;;5098613;28;20076;-80
2022/09/22 05:05:19;;;;;;;8.20;5.78;;;;;;;;;;5105636;28;20050;-80
2022/09/22 05:07:46;;;;;;;7.72;5.20;;;;;;;;;;5089394;28;20040;-79
2022/09/22 05:10:13;;;;;;;6.60;4.40;;;;;;;;;;5101395;28;20020;-80
2022/09/22 05:12:40;;;;;;;7.82;4.72;;;;;;;;;;5107442;28;20089;-81
2022/09/22 05:15:07;;;;;;;6.97;4.50;;;;;;;;;;5103224;28;20053;-81
2022/09/22 05:17:34;;;;;;;8.00;4.85;;;;;;;;;;5106108;28;20111;-81
2022/09/22 05:20:01;;;;;;;8.52;5.22;;;;;;;;;;5106073;28;20020;-81
2022/09/22 05:22:27;;;;;;;7.85;4.80;;;;;;;;;;5098517;28;20058;-81
2022/09/22 05:24:53;;;;;;;7.45;4.35;;;;;;;;;;5086384;28;20103;-81
2022/09/22 05:27:19;;;;;;;6.82;4.30;;;;;;;;;;5106201;28;20498;-81
2022/09/22 05:29:45;;;;;;;7.22;4.50;;;;;;;;;;5104388;28;20028;-83
2022/09/22 05:32:12;;;;;;;7.95;4.68;;;;;;;;;;5087807;28;20024;-81
2022/09/22 05:34:38;;;;;;;7.00;4.18;;;;;;;;;;5088203;28;20032;-81
2022/09/22 05:37:04;;;;;;;6.85;4.60;;;;;;;;;;5106232;28;20047;-81
2022/09/22 05:39:29;;;;;;;8.88;5.22;;;;;;;;;;5107359;28;20028;-81
2022/09/22 05:41:56;;;;;;;7.43;4.55;;;;;;;;;;5088340;28;20069;-81
2022/09/22 05:44:22;;;;;;;9.15;5.07;;;;;;;;;;5106185;28;20364;-80
2022/09/22 05:46:48;;;;;;;8.52;4.72;;;;;;;;;;5105583;28;20024;-81
2022/09/22 05:49:14;;;;;;;7.50;4.57;;;;;;;;;;5102593;28;20032;-81
2022/09/22 05:51:40;;;;;;;7.65;4.22;;;;;;;;;;5103194;28;20590;-82
2022/09/22 05:54:08;;;;;;;8.85;4.03;;;;;;;;;;5102938;28;20034;-80
2022/09/22 05:56:34;;;;;;;7.72;4.00;;;;;;;;;;5087999;28;20054;-80
2022/09/22 05:59:00;;;;;;;7.03;4.07;;;;;;;;;;5088292;28;20028;-81
2022/09/22 06:01:27;;;;;;;9.25;4.72;;;;;;;;;;5106472;28;20024;-80
2022/09/22 06:03:53;;;;;;;9.73;4.30;;;;;;;;;;5106548;28;20094;-80
2022/09/22 06:06:19;;;;;;;6.35;4.03;;;;;;;;;;5105251;28;20027;-80
2022/09/22 06:08:45;;;;;;;6.97;3.70;;;;;;;;;;5107365;28;20044;-80
2022/09/22 06:11:11;;;;;;;6.75;4.10;;;;;;;;;;5106366;28;20039;-79
2022/09/22 06:13:38;;;;;;;6.78;3.80;;;;;;;;;;5107214;28;20036;-83
2022/09/22 06:16:04;;;;;;;10.73;4.63;;;;;;;;;;5105973;28;20056;-82
2022/09/22 06:18:30;;;;;;;6.50;3.53;;;;;;;;;;5107463;28;20031;-84
2022/09/22 06:20:57;;;;;;;6.75;3.90;;;;;;;;;;5107184;28;20604;-84
2022/09/22 06:23:24;;;;;;;6.97;3.72;;;;;;;;;;5106507;28;20024;-82
2022/09/22 06:25:56;;;;;;;6.60;3.80;;;;;;;;;;5108029;28;20008;-82
2022/09/22 06:28:22;;;;;;;7.03;4.07;;;;;;;;;;5107830;28;20020;-82
2022/09/22 06:30:50;;;;;;;6.47;3.65;;;;;;;;;;5089356;28;20050;-83
2022/09/22 06:33:16;;;;;;;8.48;4.13;;;;;;;;;;5105401;28;20020;-81
2022/09/22 06:35:44;;;;;;;7.53;3.72;;;;;;;;;;5104959;28;20024;-82
2022/09/22 06:38:13;;;;;;;6.13;3.60;;;;;;;;;;5085271;28;20142;-82
2022/09/22 06:40:40;;;;;;;8.27;3.60;;;;;;;;;;5084112;28;20060;-81
2022/09/22 06:43:08;;;;;;;7.53;3.45;;;;;;;;;;5102670;28;20028;-83
2022/09/22 06:45:34;;;;;;;9.25;3.72;;;;;;;;;;5114472;28;20024;-81
2022/09/22 06:48:01;;;;;;;6.88;3.97;;;;;;;;;;5114732;28;20032;-83
2022/09/22 06:50:31;;;;;;;8.27;4.05;;;;;;;;;;5089717;28;20043;-82
2022/09/22 06:53:01;;;;;;;6.70;3.65;;;;;;;;;;5106007;28;20054;-83
2022/09/22 06:55:32;;;;;;;7.18;3.20;;;;;;;;;;5107345;28;20032;-82
2022/09/22 06:57:59;;;;;;;7.68;3.92;;;;;;;;;;5106593;28;20084;-82
2022/09/22 07:00:29;;;;;;;6.43;3.63;;;;;;;;;;5105986;28;20028;-83
2022/09/22 07:03:27;;;;;;;7.68;3.80;;;;;;;;;;5101084;28;20012;-83
2022/09/22 07:06:12;;;;;;;5.55;3.17;;;;;;;;;;5100737;28;20539;-83
2022/09/22 07:12:25;;;;;;;8.10;3.50;;;;;;;;;;4998554;28;20145;-83
2022/09/22 07:15:12;;;;;;;6.70;3.10;;;;;;;;;;5009729;28;20026;-82
2022/09/22 07:17:38;;;;;;;5.93;3.90;;;;;;;;;;5012725;28;20411;-82
2022/09/22 07:20:04;;;;;;;7.18;3.90;;;;;;;;;;5004710;28;20038;-82
2022/09/22 07:22:30;;;;;;;5.68;3.28;;;;;;;;;;4992997;28;20518;-82
2022/09/22 07:24:56;;;;;;;6.63;3.95;;;;;;;;;;4993124;28;20034;-82
2022/09/22 07:27:24;;;;;;;5.55;2.95;;;;;;;;;;4992512;28;20058;-83
2022/09/22 07:29:50;;;;;;;7.30;3.45;;;;;;;;;;5001182;28;20049;-83
2022/09/22 07:32:17;;;;;;;6.70;3.80;;;;;;;;;;5011907;28;20034;-82
2022/09/22 07:34:43;;;;;;;5.38;3.40;;;;;;;;;;5011998;28;20026;-82
2022/09/22 07:37:10;;;;;;;7.88;3.78;;;;;;;;;;5012340;28;20069;-82
2022/09/22 07:39:36;;;;;;;6.22;3.58;;;;;;;;;;5011145;28;20057;-82
2022/09/22 07:42:02;;;;;;;7.10;3.90;;;;;;;;;;5003706;28;20042;-82
2022/09/22 07:47:12;;;;;;;6.13;3.60;;;;;;;;;;5002153;28;20358;-82
2022/09/22 07:52:51;;;;;;;7.43;4.15;;;;;;;;;;5019183;28;20147;-82
2022/09/22 07:55:17;;;;;;;5.97;3.42;;;;;;;;;;5023794;28;20041;-82
2022/09/22 07:57:43;;;;;;;6.03;3.85;;;;;;;;;;5025107;28;20070;-82
2022/09/22 08:00:10;;;;;;;7.55;4.07;;;;;;;;;;5034174;28;20251;-82
2022/09/22 08:02:36;;;;;;;6.00;3.88;;;;;;;;;;5041363;28;20044;-82
2022/09/22 08:05:03;;;;;;;5.60;3.30;;;;;;;;;;5043032;28;20036;-82
2022/09/22 08:07:36;;;;;;;5.72;3.53;;;;;;;;;;5040427;28;20037;-82
2022/09/22 08:10:02;;;;;;;6.20;3.95;;;;;;;;;;5046264;28;20339;-82
2022/09/22 08:12:28;;;;;;;6.32;4.07;;;;;;;;;;5061818;28;20116;-82
2022/09/22 08:14:56;;;;;;;5.75;3.50;;;;;;;;;;5058759;28;20056;-82
2022/09/22 08:17:23;;;;;;;7.05;3.80;;;;;;;;;;5063361;28;20021;-82
2022/09/22 08:19:49;;;;;;;7.72;4.47;;;;;;;;;;5062434;28;20055;-81
2022/09/22 08:22:17;;;;;;;6.03;3.42;;;;;;;;;;5064911;28;20061;-82
2022/09/22 08:24:44;;;;;;;7.78;4.25;;;;;;;;;;5080912;28;20103;-82
2022/09/22 08:27:10;;;;;;;6.68;4.03;;;;;;;;;;5088497;28;20024;-82
2022/09/22 08:29:36;;;;;;;6.40;3.90;;;;;;;;;;5106337;28;20032;-82
2022/09/22 08:32:02;;;;;;;6.55;4.15;;;;;;;;;;5102341;28;20086;-82
2022/09/22 08:34:28;;;;;;;7.68;3.70;;;;;;;;;;5086478;28;20020;-83
2022/09/22 08:36:54;;;;;;;6.47;4.10;;;;;;;;;;5102079;28;20028;-82
2022/09/22 08:39:21;;;;;;;7.30;4.43;;;;;;;;;;5108495;28;20012;-81
2022/09/22 08:42:09;;;;;;;9.77;5.90;;;;;;;;;;5107678;28;20080;-82
2022/09/22 08:45:27;;;;;;;6.13;3.35;;;;;;;;;;5101531;28;20032;-83
2022/09/22 08:57:45;;;;;;;;;;;;;;;;;;5044638;28;20520;-83
2022/09/22 09:10:07;;;;;;;6.15;3.83;;;;;;;;;;5001708;28;20083;-83
2022/09/22 09:12:59;;;;;;;6.35;3.40;;;;;;;;;;4948481;29;20520;-83
2022/09/22 09:15:47;;;;;;;6.65;3.88;;;;;;;;;;4946038;29;20143;-83
2022/09/22 09:21:18;;;;;;;6.82;3.88;;;;;;;;;;4907340;29;20064;-81
2022/09/22 09:23:46;;;;;;;6.43;3.78;;;;;;;;;;4899324;29;20049;-82
2022/09/22 09:26:13;;;;;;;6.53;3.75;;;;;;;;;;4854341;29;20030;-82
2022/09/22 09:28:43;;;;;;;5.70;3.78;;;;;;;;;;4880163;29;20081;-82
2022/09/22 09:31:45;;;;;;;7.18;3.80;;;;;;;;;;4879777;29;20111;-82
2022/09/22 09:34:16;;;;;;;6.05;3.70;;;;;;;;;;4924397;29;20075;-82
2022/09/22 09:36:45;;;;;;;6.85;3.47;;;;;;;;;;4936430;29;20036;-82
2022/09/22 09:39:17;;;;;;;5.68;3.20;;;;;;;;;;4938020;29;20520;-82
2022/09/22 09:41:45;;;;;;;5.57;3.13;;;;;;;;;;4934982;29;20139;-81
2022/09/22 09:44:15;;;;;;;5.60;3.53;;;;;;;;;;4936522;29;20019;-82
2022/09/22 09:46:58;;;;;;;6.38;3.72;;;;;;;;;;4935388;29;20122;-82
2022/09/22 09:49:24;;;;;;;6.35;3.72;;;;;;;;;;4955804;28;20096;-82
2022/09/22 09:51:51;;;;;;;5.38;3.38;;;;;;;;;;5010671;28;20093;-81
2022/09/22 09:54:18;;;;;;;6.75;3.95;;;;;;;;;;5044250;28;20092;-82
2022/09/22 09:57:03;;;;;;;6.75;3.90;;;;;;;;;;5048731;28;20043;-82
2022/09/22 10:02:20;;;;;;;5.43;3.50;;;;;;;;;;5045316;28;20040;-82
2022/09/22 10:04:53;;;;;;;7.93;5.28;;;;;;;;;;5046315;28;20028;-82
2022/09/22 10:07:26;;;;;;;5.20;3.30;;;;;;;;;;5052333;28;20071;-82
2022/09/22 10:09:53;;;;;;;6.28;4.60;;;;;;;;;;5104105;28;20044;-82
2022/09/22 10:12:30;;;;;;;5.82;3.53;;;;;;;;;;5108211;28;20016;-81
2022/09/22 10:14:57;;;;;;;5.60;3.75;;;;;;;;;;5109051;28;20339;-81
2022/09/22 10:17:32;;;;;;;6.65;4.10;;;;;;;;;;5108578;28;20024;-83
2022/09/22 10:20:28;;;;;;;5.57;3.70;;;;;;;;;;5088670;28;20024;-82
2022/09/22 10:22:54;;;;;;;7.10;3.75;;;;;;;;;;5059123;28;20032;-82
2022/09/22 10:25:31;;;;;;;5.18;3.05;;;;;;;;;;5104285;28;20033;-81
2022/09/22 10:28:08;;;;;;;5.30;2.85;;;;;;;;;;5106689;28;20020;-82
2022/09/22 10:30:37;;;;;;;5.70;3.00;;;;;;;;;;5087454;28;20044;-82
2022/09/22 10:33:03;;;;;;;6.28;3.30;;;;;;;;;;5087311;28;20160;-82
2022/09/22 10:35:32;;;;;;;6.60;3.78;;;;;;;;;;5101042;28;20031;-81
2022/09/22 10:38:00;;;;;;;5.68;3.35;;;;;;;;;;5105754;28;20437;-81
2022/09/22 10:40:27;;;;;;;5.15;3.17;;;;;;;;;;5090113;28;20024;-82
2022/09/22 10:42:56;;;;;;;5.07;2.90;;;;;;;;;;5107380;28;20457;-82
2022/09/22 10:45:30;;;;;;;10.18;3.17;;;;;;;;;;5067756;28;20084;-82
2022/09/22 10:47:56;;;;;;;4.80;2.63;;;;;;;;;;5085085;28;20027;-82
2022/09/22 10:50:22;;;;;;;5.60;3.53;;;;;;;;;;5103754;28;20056;-81
2022/09/22 10:52:55;;;;;;;4.70;2.92;;;;;;;;;;5087888;28;20028;-82
2022/09/22 10:55:21;;;;;;;4.40;2.75;;;;;;;;;;5102075;28;20054;-82
2022/09/22 10:57:59;;;;;;;5.28;2.55;;;;;;;;;;5103416;28;20028;-81
2022/09/22 11:00:25;;;;;;;4.55;2.45;;;;;;;;;;5107160;28;20031;-82
2022/09/22 11:02:51;;;;;;;3.75;2.25;;;;;;;;;;5107380;28;20031;-82
2022/09/22 11:12:15;;;;;;;4.82;2.50;;;;;;;;;;5104773;28;20028;-82
2022/09/22 11:14:05;;;;;;;4.47;2.60;;;;;;;;;;5106854;28;20051;-82
2022/09/22 11:16:37;;;;;;;5.60;2.58;;;;;;;;;;5105399;28;20032;-82
2022/09/22 11:19:13;;;;;;;5.07;2.50;;;;;;;;;;5095009;28;20043;-82
2022/09/22 11:21:45;;;;;;;3.83;1.65;;;;;;;;;;5104719;28;20278;-82
2022/09/22 11:24:37;;;;;;;3.80;1.90;;;;;;;;;;5106331;28;20069;-83
2022/09/22 11:27:44;;;;;;;4.13;1.77;;;;;;;;;;5101127;28;20040;-83
2022/09/22 11:30:57;;;;;;;4.20;1.75;;;;;;;;;;5005900;28;20046;-83
2022/09/22 11:37:24;;;;;;;2.33;1.10;;;;;;;;;;4978526;28;20090;-83
2022/09/22 11:46:23;;;;;;;3.22;1.40;;;;;;;;;;4962786;28;20023;-84
2022/09/22 11:49:40;;;;;;;12.50;6.90;;;;;;;;;;4933821;29;20229;-83
2022/09/22 11:55:33;;;;;;;;;;;;;;;;;;4908841;29;20068;-84
2022/09/22 11:58:19;;;;;;;3.13;1.20;;;;;;;;;;4907948;29;19915;-83
2022/09/22 12:01:15;;;;;;;4.78;2.05;;;;;;;;;;4905754;29;20040;-83
2022/09/22 12:04:29;;;;;;;3.13;1.20;;;;;;;;;;4893176;29;20042;-83
2022/09/22 12:26:23;;;;;;;11.30;5.80;;;;;;;;;;4876000;29;20040;-84
2022/09/22 12:29:11;;;;;;;3.05;1.05;;;;;;;;;;4954135;28;20576;-83
2022/09/22 12:31:50;;;;;;;2.90;1.13;;;;;;;;;;4948798;28;20447;-83
2022/09/22 12:38:00;;;;;;;3.05;1.20;;;;;;;;;;4963060;29;20539;-83
2022/09/22 12:41:03;;;;;;;3.35;1.30;;;;;;;;;;4978804;28;20039;-83
2022/09/22 12:43:31;;;;;;;;;;;;;;;;;;4960833;28;20030;-83
2022/09/22 12:46:09;;;;;;;7.47;1.83;;;;;;;;;;5018126;28;19936;-83
2022/09/22 12:48:58;;;;;;;2.95;1.27;;;;;;;;;;5019259;28;20063;-83
2022/09/22 12:51:31;;;;;;;3.47;1.30;;;;;;;;;;5017803;28;20046;-83
2022/09/22 12:54:16;;;;;;;3.00;1.30;;;;;;;;;;5003725;28;20202;-84
2022/09/22 12:57:03;;;;;;;3.47;1.33;;;;;;;;;;5010208;28;20090;-83
2022/09/22 13:00:04;;;;;;;2.83;1.20;;;;;;;;;;5005105;28;20042;-83
2022/09/22 13:02:46;;;;;;;3.83;1.60;;;;;;;;;;4942643;29;20111;-83
2022/09/22 13:05:29;;;;;;;3.03;1.10;;;;;;;;;;4925730;29;20072;-83
2022/09/22 13:07:57;;;;;;;3.35;1.20;;;;;;;;;;4926065;29;20039;-85
2022/09/22 13:10:27;;;;;;;2.25;1.00;;;;;;;;;;4926620;29;20047;-84
2022/09/22 13:13:05;;;;;;;3.35;1.33;;;;;;;;;;4926443;29;20039;-84
2022/09/22 13:15:35;;;;;;;3.65;1.30;;;;;;;;;;4925450;29;20027;-85
2022/09/22 13:18:01;;;;;;;6.20;2.13;;;;;;;;;;4941102;29;20039;-84
2022/09/22 13:20:27;;;;;;;4.57;1.30;;;;;;;;;;4926148;29;20044;-84
2022/09/22 13:22:55;;;;;;;3.83;1.77;;;;;;;;;;4931777;29;20032;-85
2022/09/22 13:25:22;;;;;;;3.70;2.10;;;;;;;;;;4934456;29;20027;-84
2022/09/22 13:28:04;;;;;;;3.97;2.17;;;;;;;;;;4944618;29;20053;-85
2022/09/22 13:30:31;;;;;;;4.18;1.50;;;;;;;;;;4964039;29;20039;-81
2022/09/22 13:32:57;;;;;;;4.13;1.67;;;;;;;;;;4947871;29;20096;-82
2022/09/22 13:35:27;;;;;;;4.88;2.28;;;;;;;;;;4959976;29;20539;-84
2022/09/22 13:38:00;;;;;;;3.53;1.30;;;;;;;;;;4979678;28;20240;-82
2022/09/22 13:40:26;;;;;;;;;;;;;;;;;;5056373;28;20037;-84
2022/09/22 13:42:53;;;;;;;3.30;1.40;;;;;;;;;;5098025;28;20383;-84
2022/09/22 13:45:24;;;;;;;3.40;1.35;;;;;;;;;;5079120;28;20056;-85
2022/09/22 13:47:52;;;;;;;3.72;1.42;;;;;;;;;;5095524;28;20086;-84
2022/09/22 13:50:20;;;;;;;4.30;1.92;;;;;;;;;;5095660;28;20437;-82
2022/09/22 13:52:48;;;;;;;2.63;1.10;;;;;;;;;;5094192;28;20035;-82
2022/09/22 13:55:18;;;;;;;3.70;1.20;;;;;;;;;;5096152;28;20035;-83
2022/09/22 13:57:45;;;;;;;4.10;1.92;;;;;;;;;;5075936;28;20499;-83
2022/09/22 14:00:23;;;;;;;3.55;1.30;;;;;;;;;;5083641;28;20229;-82
2022/09/22 14:02:50;;;;;;;3.45;1.30;;;;;;;;;;5095957;28;20095;-82
2022/09/22 14:05:19;;;;;;;4.78;2.17;;;;;;;;;;5096825;28;20016;-82
2022/09/22 14:07:45;;;;;;;2.53;1.05;;;;;;;;;;5074334;28;20456;-82
2022/09/22 14:10:17;;;;;;;2.92;1.10;;;;;;;;;;5096016;28;20039;-82
2022/09/22 14:12:43;;;;;;;3.63;1.13;;;;;;;;;;5095495;28;20024;-82
2022/09/22 14:15:28;;;;;;;2.65;1.10;;;;;;;;;;5093141;28;20032;-82
2022/09/22 14:17:54;;;;;;;2.92;1.05;;;;;;;;;;5096801;28;20433;-82
2022/09/22 14:20:20;;;;;;;3.60;1.15;;;;;;;;;;5075113;28;20032;-82
2022/09/22 14:22:46;;;;;;;3.33;1.08;;;;;;;;;;5094761;28;20026;-82
2022/09/22 14:25:20;;;;;;;2.97;1.10;;;;;;;;;;5095057;28;20079;-83
2022/09/22 14:27:50;;;;;;;2.88;1.10;;;;;;;;;;5096094;28;20479;-81
2022/09/22 14:30:17;;;;;;;3.53;1.10;;;;;;;;;;5087811;28;20020;-81
2022/09/22 14:32:49;;;;;;;3.28;1.30;;;;;;;;;;5090724;28;20021;-81
2022/09/22 14:35:31;;;;;;;3.00;0.88;;;;;;;;;;5079142;28;20101;-81
2022/09/22 14:38:01;;;;;;;2.63;1.10;;;;;;;;;;5095675;28;20028;-81
2022/09/22 14:40:28;;;;;;;2.03;1.00;;;;;;;;;;5077215;28;20552;-81
2022/09/22 14:43:07;;;;;;;2.45;0.90;;;;;;;;;;5094629;28;20031;-81
2022/09/22 14:45:34;;;;;;;2.63;0.85;;;;;;;;;;5094649;28;20031;-82
2022/09/22 14:48:12;;;;;;;2.58;1.00;;;;;;;;;;5095610;28;20012;-82
2022/09/22 14:50:41;;;;;;;2.08;0.80;;;;;;;;;;5095154;28;20053;-82
2022/09/22 14:53:21;;;;;;;2.33;0.88;;;;;;;;;;5094523;28;20488;-82
2022/09/22 14:55:53;;;;;;;2.80;1.08;;;;;;;;;;5089372;28;20029;-82
2022/09/22 14:58:23;;;;;;;2.40;1.08;;;;;;;;;;5080859;28;20370;-82
2022/09/22 15:03:44;;;;;;;2.80;1.00;;;;;;;;;;5095044;28;20043;-82
2022/09/22 15:06:14;;;;;;;2.35;0.90;;;;;;;;;;5089005;28;20085;-82
2022/09/22 15:08:42;;;;;;;2.88;0.90;;;;;;;;;;5093790;28;20024;-82
2022/09/22 15:11:09;;;;;;;2.40;0.90;;;;;;;;;;5095622;28;20038;-81
2022/09/22 15:13:39;;;;;;;2.20;0.80;;;;;;;;;;5094846;28;20519;-82
2022/09/22 15:16:25;;;;;;;2.90;0.98;;;;;;;;;;5075606;28;20036;-83
2022/09/22 15:18:51;;;;;;;3.75;1.40;;;;;;;;;;5094610;28;20035;-81
2022/09/22 15:21:17;;;;;;;4.00;1.67;;;;;;;;;;5094210;28;20040;-81
2022/09/22 15:23:47;;;;;;;4.65;1.83;;;;;;;;;;5094185;28;20486;-82
2022/09/22 15:26:18;;;;;;;4.60;1.52;;;;;;;;;;5090189;28;20027;-82
2022/09/22 15:28:46;;;;;;;3.45;1.15;;;;;;;;;;5094060;28;20565;-82
2022/09/22 15:31:25;;;;;;;3.00;1.27;;;;;;;;;;5076537;28;20024;-83
2022/09/22 15:33:55;;;;;;;3.42;1.48;;;;;;;;;;5093351;28;20437;-83
2022/09/22 15:36:21;;;;;;;3.85;1.50;;;;;;;;;;5089728;28;20055;-81
2022/09/22 15:38:48;;;;;;;3.72;1.45;;;;;;;;;;5072936;28;20384;-82
2022/09/22 15:41:15;;;;;;;3.03;1.13;;;;;;;;;;5095129;28;20538;-82
2022/09/22 15:43:42;;;;;;;2.85;1.40;;;;;;;;;;5093069;28;20052;-82
2022/09/22 15:46:30;;;;;;;3.25;1.30;;;;;;;;;;5092933;28;20027;-81
2022/09/22 15:49:16;;;;;;;2.92;1.10;;;;;;;;;;5092918;28;20020;-82
2022/09/22 15:51:43;;;;;;;2.95;1.27;;;;;;;;;;5072780;28;20021;-82
2022/09/22 15:54:13;;;;;;;2.65;1.00;;;;;;;;;;5093902;28;20652;-82
2022/09/22 15:56:40;;;;;;;2.88;1.10;;;;;;;;;;5094478;28;20047;-82
2022/09/22 15:59:07;;;;;;;2.47;1.08;;;;;;;;;;5092544;28;20345;-81
2022/09/22 16:01:33;;;;;;;2.40;0.95;;;;;;;;;;5090820;28;20024;-82
2022/09/22 16:03:59;;;;;;;3.63;1.30;;;;;;;;;;5092495;28;20077;-82
2022/09/22 16:06:26;;;;;;;2.63;1.00;;;;;;;;;;5094416;28;20043;-82
2022/09/22 16:08:52;;;;;;;2.90;1.00;;;;;;;;;;5093504;28;20032;-82
2022/09/22 16:11:27;;;;;;;2.65;1.00;;;;;;;;;;5092460;28;20028;-82
2022/09/22 16:13:56;;;;;;;2.92;1.20;;;;;;;;;;5094630;28;20495;-82
2022/09/22 16:16:23;;;;;;;2.13;1.05;;;;;;;;;;5094381;28;20390;-83
2022/09/22 16:18:49;;;;;;;4.03;1.10;;;;;;;;;;5092481;28;20107;-83
2022/09/22 16:21:24;;;;;;;3.10;1.10;;;;;;;;;;5095991;28;20121;-83
2022/09/22 16:23:53;;;;;;;1.80;0.80;;;;;;;;;;5092700;28;20037;-83
2022/09/22 16:26:20;;;;;;;3.08;0.80;;;;;;;;;;5098319;28;20020;-83